Time;durP1;ratioP1;P1;durP2;ratioP2;P2;SDS_P1;SDS_P2;PMS_P1;PMS_P2;Temp;Humidity;BMP_temperature;BMP_pressure;BME280_temperature;BME280_humidity;BME280_pressure;Samples;Min_cycle;Max_cycle;Signal;HPM_P1;HPM_P2
2022/11/15 00:01:51;;;;;;;6.97;3.50;;;;;;;2.84;100.00;92803.19;5134456;27;20054;-76
2022/11/15 00:04:35;;;;;;;5.50;3.45;;;;;;;2.82;100.00;92812.19;5118981;27;20065;-75
2022/11/15 00:07:19;;;;;;;5.78;3.25;;;;;;;2.79;100.00;92810.03;5122602;27;20046;-76
2022/11/15 00:10:03;;;;;;;5.80;3.30;;;;;;;2.78;100.00;92803.31;5134042;27;20047;-75
2022/11/15 00:12:47;;;;;;;5.13;3.38;;;;;;;2.78;100.00;92798.16;5139149;27;20565;-75
2022/11/15 00:15:33;;;;;;;6.30;3.55;;;;;;;2.77;100.00;92788.81;5124876;27;20077;-75
2022/11/15 00:18:18;;;;;;;6.15;3.50;;;;;;;2.71;100.00;92780.97;5118654;27;20537;-75
2022/11/15 00:21:06;;;;;;;7.00;3.53;;;;;;;2.67;100.00;92777.25;5133955;27;20045;-75
2022/11/15 00:23:50;;;;;;;6.35;3.40;;;;;;;2.69;100.00;92780.41;5144304;27;20065;-75
2022/11/15 00:26:34;;;;;;;5.45;3.22;;;;;;;2.67;100.00;92777.25;5152175;27;20405;-76
2022/11/15 00:29:18;;;;;;;5.85;3.20;;;;;;;2.63;100.00;92776.16;5133886;27;20402;-75
2022/11/15 00:32:01;;;;;;;5.65;2.92;;;;;;;2.63;100.00;92770.97;5133720;27;20111;-76
2022/11/15 00:34:45;;;;;;;5.38;3.08;;;;;;;2.66;100.00;92767.16;5136415;27;20077;-75
2022/11/15 00:37:29;;;;;;;4.88;2.80;;;;;;;2.69;100.00;92764.88;5117942;27;20042;-75
2022/11/15 00:40:14;;;;;;;5.03;3.20;;;;;;;2.69;100.00;92753.78;5134010;27;20091;-75
2022/11/15 00:42:59;;;;;;;5.30;3.20;;;;;;;2.68;100.00;92747.03;5133607;27;20111;-76
2022/11/15 00:45:42;;;;;;;6.05;3.25;;;;;;;2.66;100.00;92752.44;5135084;27;20065;-76
2022/11/15 00:48:26;;;;;;;5.90;3.13;;;;;;;2.64;100.00;92746.72;5136397;27;20535;-75
2022/11/15 00:51:10;;;;;;;6.13;3.33;;;;;;;2.63;100.00;92739.97;5153979;27;20049;-75
2022/11/15 00:53:54;;;;;;;5.55;3.13;;;;;;;2.63;100.00;92744.34;5154067;27;20050;-75
2022/11/15 00:56:38;;;;;;;6.82;3.47;;;;;;;2.62;100.00;92747.97;5133100;27;20095;-75
2022/11/15 00:59:22;;;;;;;5.53;3.20;;;;;;;2.63;100.00;92750.28;5117999;27;20119;-75
2022/11/15 01:02:06;;;;;;;5.05;3.03;;;;;;;2.60;100.00;92753.34;5117676;27;20089;-76
2022/11/15 01:04:50;;;;;;;6.32;3.20;;;;;;;2.61;100.00;92754.13;5113432;27;20357;-75
2022/11/15 01:07:35;;;;;;;5.30;2.95;;;;;;;2.61;100.00;92760.09;5153432;27;20062;-75
2022/11/15 01:10:20;;;;;;;5.70;3.20;;;;;;;2.67;100.00;92750.63;5117307;27;20114;-75
2022/11/15 01:13:04;;;;;;;6.72;3.15;;;;;;;2.70;100.00;92745.78;5116912;27;20557;-76
2022/11/15 01:15:48;;;;;;;6.03;3.20;;;;;;;2.71;100.00;92746.56;5122276;27;20041;-76
2022/11/15 01:18:32;;;;;;;5.82;3.13;;;;;;;2.70;100.00;92742.41;5123741;27;20548;-75
2022/11/15 01:21:18;;;;;;;4.78;2.78;;;;;;;2.68;100.00;92731.53;5115919;27;20168;-76
2022/11/15 01:24:02;;;;;;;5.18;2.78;;;;;;;2.70;100.00;92745.00;5132707;27;20577;-76
2022/11/15 01:26:46;;;;;;;5.82;2.95;;;;;;;2.70;100.00;92735.47;5125857;27;20138;-76
2022/11/15 01:29:30;;;;;;;5.32;2.63;;;;;;;2.68;100.00;92732.31;5154349;27;20091;-76
2022/11/15 01:32:14;;;;;;;5.03;3.05;;;;;;;2.69;100.00;92733.09;5132611;27;20108;-75
2022/11/15 01:34:58;;;;;;;6.30;3.25;;;;;;;2.70;100.00;92734.66;5132596;27;20062;-76
2022/11/15 01:37:42;;;;;;;5.20;2.97;;;;;;;2.70;100.00;92726.91;5136932;27;20049;-75
2022/11/15 01:40:26;;;;;;;4.97;2.88;;;;;;;2.65;100.00;92730.19;5138189;27;20046;-76
2022/11/15 01:43:21;;;;;;;5.10;3.13;;;;;;;2.63;100.00;92723.66;5138867;27;20123;-75
2022/11/15 01:46:29;;;;;;;5.00;3.10;;;;;;;2.63;100.00;92724.44;5153289;27;20458;-75
2022/11/15 01:49:20;;;;;;;4.72;2.90;;;;;;;2.59;100.00;92718.19;5137123;27;20038;-76
2022/11/15 01:52:10;;;;;;;4.93;2.92;;;;;;;2.56;100.00;92723.81;5131404;27;20085;-76
2022/11/15 01:55:19;;;;;;;5.35;2.70;;;;;;;2.53;100.00;92724.28;5131053;27;20115;-76
2022/11/15 01:58:05;;;;;;;5.53;3.05;;;;;;;2.53;100.00;92729.44;5132160;27;20042;-76
2022/11/15 02:00:50;;;;;;;6.05;2.95;;;;;;;2.54;100.00;92731.00;5153063;27;20532;-75
2022/11/15 02:03:48;;;;;;;7.30;2.90;;;;;;;2.54;100.00;92736.16;5123064;27;20106;-75
2022/11/15 02:06:33;;;;;;;4.32;2.85;;;;;;;2.53;100.00;92726.88;5151677;27;20069;-75
2022/11/15 02:09:18;;;;;;;4.65;2.75;;;;;;;2.56;100.00;92728.19;5141811;27;20114;-75
2022/11/15 02:12:02;;;;;;;4.75;2.75;;;;;;;2.58;100.00;92737.28;5132356;28;20096;-75
2022/11/15 02:14:51;;;;;;;5.53;3.17;;;;;;;2.56;100.00;92723.81;5116481;28;20061;-75
2022/11/15 02:18:11;;;;;;;4.50;2.90;;;;;;;2.56;100.00;92718.63;5131720;28;20034;-76
2022/11/15 02:21:03;;;;;;;4.82;2.95;;;;;;;2.57;100.00;92709.88;5132971;27;20061;-75
2022/11/15 02:24:12;;;;;;;6.15;3.25;;;;;;;2.58;100.00;92711.44;5134215;27;20120;-76
2022/11/15 02:27:07;;;;;;;5.93;2.90;;;;;;;2.61;100.00;92708.41;5151757;27;20170;-75
2022/11/15 02:30:18;;;;;;;5.82;3.10;;;;;;;2.60;100.00;92708.63;5137854;27;20529;-75
2022/11/15 02:33:08;;;;;;;5.50;3.30;;;;;;;2.56;100.00;92707.53;5136385;27;20077;-75
2022/11/15 02:35:59;;;;;;;6.95;3.00;;;;;;;2.54;100.00;92707.75;5136512;27;20150;-76
2022/11/15 02:39:07;;;;;;;7.00;2.88;;;;;;;2.56;100.00;92703.13;5135244;27;20038;-75
2022/11/15 02:42:03;;;;;;;5.57;2.92;;;;;;;2.53;100.00;92701.03;5135624;27;20129;-75
2022/11/15 02:44:47;;;;;;;4.95;2.97;;;;;;;2.57;100.00;92704.72;5133478;27;20068;-75
2022/11/15 02:47:39;;;;;;;6.32;2.75;;;;;;;2.54;100.00;92691.47;5139297;27;20046;-74
2022/11/15 02:50:28;;;;;;;5.30;3.17;;;;;;;2.50;100.00;92675.66;5132714;27;20088;-74
2022/11/15 02:53:14;;;;;;;4.90;2.95;;;;;;;2.59;100.00;92682.00;5156780;27;20478;-74
2022/11/15 02:55:58;;;;;;;6.20;2.83;;;;;;;2.58;100.00;92672.66;5156190;27;20045;-74
2022/11/15 02:59:11;;;;;;;5.53;3.10;;;;;;;2.58;100.00;92682.22;5156184;27;20046;-75
2022/11/15 03:02:01;;;;;;;5.25;2.95;;;;;;;2.58;100.00;92688.19;5128970;27;20129;-74
2022/11/15 03:05:23;;;;;;;4.90;2.80;;;;;;;2.59;100.00;92676.84;5156128;27;20034;-77
2022/11/15 03:08:37;;;;;;;4.93;2.97;;;;;;;2.58;100.00;92670.09;5155790;27;20042;-76
2022/11/15 03:11:22;;;;;;;5.25;3.20;;;;;;;2.59;100.00;92670.88;5137702;27;20045;-76
2022/11/15 03:14:29;;;;;;;4.32;2.60;;;;;;;2.58;100.00;92664.91;5155734;27;20054;-76
2022/11/15 03:17:38;;;;;;;4.53;2.90;;;;;;;2.59;100.00;92661.34;5143468;27;20397;-76
2022/11/15 03:20:25;;;;;;;4.72;2.60;;;;;;;2.63;100.00;92662.41;5134070;27;20045;-76
2022/11/15 03:23:10;;;;;;;4.85;3.00;;;;;;;2.66;100.00;92656.81;5136281;27;20503;-76
2022/11/15 03:25:57;;;;;;;3.90;2.28;;;;;;;2.68;100.00;92651.41;5133984;27;20073;-76
2022/11/15 03:28:53;;;;;;;4.68;2.58;;;;;;;2.71;100.00;92659.47;5134834;27;20103;-76
2022/11/15 03:31:46;;;;;;;4.68;2.60;;;;;;;2.75;100.00;92648.66;5134948;27;20057;-77
2022/11/15 03:34:39;;;;;;;4.75;2.50;;;;;;;2.77;100.00;92644.03;5151338;27;20547;-76
2022/11/15 03:37:32;;;;;;;4.05;2.40;;;;;;;2.82;100.00;92646.72;5151774;27;20057;-75
2022/11/15 03:40:21;;;;;;;3.92;2.20;;;;;;;2.87;100.00;92639.03;5134930;27;20561;-76
2022/11/15 03:43:17;;;;;;;3.60;2.13;;;;;;;2.92;100.00;92639.09;5120050;27;20685;-75
2022/11/15 03:46:05;;;;;;;5.90;2.42;;;;;;;2.97;100.00;92640.97;5134440;27;20459;-76
2022/11/15 03:48:59;;;;;;;4.10;2.30;;;;;;;3.02;100.00;92641.09;5130392;27;20149;-76
2022/11/15 03:51:43;;;;;;;4.07;2.10;;;;;;;3.02;100.00;92628.16;5134742;27;20042;-75
2022/11/15 03:54:27;;;;;;;3.80;2.38;;;;;;;3.05;100.00;92628.44;5125735;27;20069;-76
2022/11/15 03:57:11;;;;;;;4.13;2.33;;;;;;;3.10;100.00;92625.94;5122809;27;20093;-76
2022/11/15 03:59:55;;;;;;;4.40;2.20;;;;;;;3.12;100.00;92628.28;5133216;27;20123;-75
2022/11/15 04:02:39;;;;;;;3.83;2.33;;;;;;;3.13;100.00;92622.09;5155174;27;20049;-76
2022/11/15 04:05:23;;;;;;;3.60;2.00;;;;;;;3.18;100.00;92622.16;5116974;27;20109;-76
2022/11/15 04:08:07;;;;;;;3.67;2.40;;;;;;;3.20;100.00;92617.53;5152119;27;20154;-75
2022/11/15 04:10:52;;;;;;;5.13;2.20;;;;;;;3.24;100.00;92621.22;5121669;27;20054;-76
2022/11/15 04:13:36;;;;;;;4.18;2.33;;;;;;;3.26;100.00;92608.03;5133638;27;20151;-75
2022/11/15 04:16:20;;;;;;;6.50;2.40;;;;;;;3.30;100.00;92611.72;5136811;27;20041;-75
2022/11/15 04:25:10;;;;;;;3.60;2.20;;;;;;;3.38;100.00;92605.34;5132995;27;20058;-75
2022/11/15 04:27:54;;;;;;;3.70;2.00;;;;;;;3.40;100.00;92606.69;5133576;27;20453;-76
2022/11/15 04:30:38;;;;;;;4.38;2.20;;;;;;;3.41;100.00;92600.50;5133514;27;20463;-76
2022/11/15 04:33:23;;;;;;;3.70;2.25;;;;;;;3.42;100.00;92604.63;5118124;27;20050;-75
2022/11/15 04:39:17;;;;;;;3.97;2.20;;;;;;;3.43;100.00;92606.22;5122346;27;20659;-76
2022/11/15 04:42:01;;;;;;;4.05;2.30;;;;;;;3.47;100.00;92604.72;5133483;27;20540;-76
2022/11/15 04:44:45;;;;;;;4.07;2.38;;;;;;;3.48;100.00;92606.28;5132328;27;20050;-75
2022/11/15 04:47:29;;;;;;;3.30;2.15;;;;;;;3.47;100.00;92609.91;5117590;27;20116;-75
2022/11/15 04:50:14;;;;;;;3.65;2.20;;;;;;;3.45;100.00;92601.59;5133186;27;20103;-76
2022/11/15 04:52:58;;;;;;;4.22;2.25;;;;;;;3.45;100.00;92601.59;5133159;27;20092;-75
2022/11/15 04:55:47;;;;;;;3.88;2.20;;;;;;;3.45;100.00;92600.81;5133085;27;20418;-75
2022/11/15 04:58:31;;;;;;;4.35;2.60;;;;;;;3.46;100.00;92592.78;5135106;27;20115;-75
2022/11/15 05:01:16;;;;;;;4.38;2.67;;;;;;;3.46;100.00;92587.59;5132960;27;20092;-75
2022/11/15 05:07:05;;;;;;;4.22;2.50;;;;;;;3.47;100.00;92589.19;5139784;27;20082;-75
2022/11/15 05:09:50;;;;;;;4.13;2.42;;;;;;;3.47;100.00;92588.41;5132860;27;20142;-75
2022/11/15 05:12:33;;;;;;;4.30;2.38;;;;;;;3.44;100.00;92589.66;5102521;27;20045;-75
2022/11/15 05:15:17;;;;;;;4.07;2.40;;;;;;;3.43;100.00;92595.09;5133208;27;20100;-76
2022/11/15 05:18:02;;;;;;;3.88;2.22;;;;;;;3.43;100.00;92588.09;5121372;27;20091;-75
2022/11/15 05:20:45;;;;;;;4.25;2.35;;;;;;;3.41;100.00;92579.00;5119166;27;20083;-75
2022/11/15 05:23:29;;;;;;;3.95;2.40;;;;;;;3.45;100.00;92577.50;5118831;27;20451;-76
2022/11/15 05:26:16;;;;;;;4.25;2.58;;;;;;;3.46;100.00;92577.25;5132580;27;20089;-75
2022/11/15 05:29:00;;;;;;;5.13;2.70;;;;;;;3.47;100.00;92573.66;5140701;27;20122;-75
2022/11/15 05:31:44;;;;;;;4.88;2.90;;;;;;;3.51;100.00;92572.16;5132312;27;20058;-75
2022/11/15 05:34:28;;;;;;;4.13;2.33;;;;;;;3.51;100.00;92561.81;5133824;27;20054;-75
2022/11/15 05:37:13;;;;;;;4.60;2.72;;;;;;;3.56;100.00;92566.25;5121914;27;20040;-76
2022/11/15 05:39:58;;;;;;;5.32;2.88;;;;;;;3.56;100.00;92561.09;5147242;27;20104;-75
2022/11/15 05:42:42;;;;;;;4.78;2.75;;;;;;;3.61;100.00;92565.53;5117645;27;20134;-76
2022/11/15 05:45:26;;;;;;;4.13;2.50;;;;;;;3.63;100.00;92564.28;5135734;27;20172;-76
2022/11/15 05:48:12;;;;;;;4.38;2.40;;;;;;;3.64;100.00;92558.06;5140020;27;20042;-77
2022/11/15 05:50:56;;;;;;;5.13;2.70;;;;;;;3.68;100.00;92553.97;5154169;27;20050;-77
2022/11/15 05:53:40;;;;;;;4.90;2.60;;;;;;;3.71;100.00;92560.47;5140498;27;20099;-77
2022/11/15 05:56:25;;;;;;;5.00;3.10;;;;;;;3.77;100.00;92550.97;5117391;27;20085;-77
2022/11/15 05:59:10;;;;;;;3.97;2.47;;;;;;;3.80;100.00;92553.06;5134049;27;20058;-77
2022/11/15 06:01:55;;;;;;;4.88;2.65;;;;;;;3.83;100.00;92550.78;5136639;27;20100;-77
2022/11/15 06:04:41;;;;;;;4.15;2.40;;;;;;;3.85;100.00;92556.50;5124524;27;20502;-78
2022/11/15 06:07:25;;;;;;;4.85;2.30;;;;;;;3.86;100.00;92549.50;5138154;27;20055;-77
2022/11/15 06:10:09;;;;;;;4.38;2.67;;;;;;;3.93;100.00;92548.28;5121801;27;20150;-78
2022/11/15 06:12:58;;;;;;;4.93;2.83;;;;;;;3.97;100.00;92539.00;5120037;27;20413;-78
2022/11/15 06:15:42;;;;;;;4.72;2.88;;;;;;;3.99;100.00;92543.16;5123684;28;20156;-79
2022/11/15 06:18:26;;;;;;;5.00;2.78;;;;;;;4.04;100.00;92548.41;5148737;27;20539;-78
2022/11/15 06:21:10;;;;;;;5.28;2.95;;;;;;;4.02;100.00;92548.63;5152013;27;20454;-79
2022/11/15 06:23:52;;;;;;;5.13;3.30;;;;;;;4.07;100.00;92553.84;5106740;28;20066;-75
2022/11/15 06:26:50;;;;;;;4.80;2.90;;;;;;;4.10;100.00;92552.59;5124486;27;20926;-75
2022/11/15 06:29:35;;;;;;;4.60;2.80;;;;;;;4.11;100.00;92557.53;5089557;28;20059;-75
2022/11/15 06:32:18;;;;;;;5.78;3.38;;;;;;;4.14;100.00;92556.25;5096363;28;20079;-75
2022/11/15 06:35:03;;;;;;;5.38;3.50;;;;;;;4.16;100.00;92554.19;5102792;28;20085;-75
2022/11/15 06:37:47;;;;;;;6.75;3.03;;;;;;;4.19;100.00;92553.72;5076688;28;20125;-75
2022/11/15 06:40:34;;;;;;;5.07;2.97;;;;;;;4.22;100.00;92557.63;5101038;28;20479;-76
2022/11/15 06:43:19;;;;;;;5.15;2.65;;;;;;;4.22;100.00;92561.00;5094084;28;20051;-76
2022/11/15 06:46:04;;;;;;;9.48;4.68;;;;;;;4.29;100.00;92563.41;5107735;28;20512;-75
2022/11/15 06:48:51;;;;;;;6.45;4.13;;;;;;;4.32;100.00;92576.66;5111318;28;20047;-76
2022/11/15 06:51:35;;;;;;;6.47;3.70;;;;;;;4.32;100.00;92574.06;5096415;28;20066;-77
2022/11/15 06:54:20;;;;;;;5.60;2.50;;;;;;;4.33;100.00;92575.63;5093461;28;20047;-76
2022/11/15 06:57:05;;;;;;;5.28;3.00;;;;;;;4.34;100.00;92574.56;5099095;28;20034;-76
2022/11/15 06:59:49;;;;;;;4.93;2.83;;;;;;;4.36;100.00;92575.13;5093610;28;20086;-75
2022/11/15 07:02:33;;;;;;;5.18;2.75;;;;;;;4.41;100.00;92576.19;5087207;28;20756;-75
2022/11/15 07:05:17;;;;;;;5.95;3.20;;;;;;;4.44;100.00;92570.53;5092277;28;20063;-75
2022/11/15 07:08:02;;;;;;;4.53;2.97;;;;;;;4.47;100.00;92578.59;5097320;28;20040;-76
2022/11/15 07:10:46;;;;;;;4.90;2.80;;;;;;;4.49;100.00;92583.53;5090926;28;20050;-75
2022/11/15 07:13:34;;;;;;;5.40;3.00;;;;;;;4.52;100.00;92578.63;5096539;28;20094;-76
2022/11/15 07:16:18;;;;;;;5.30;3.08;;;;;;;4.54;100.00;92580.97;5093802;28;20120;-76
2022/11/15 07:19:03;;;;;;;5.25;3.03;;;;;;;4.56;100.00;92591.91;5098777;28;20055;-76
2022/11/15 07:21:47;;;;;;;4.47;2.50;;;;;;;4.56;100.00;92584.13;5092767;28;20141;-76
2022/11/15 07:24:31;;;;;;;4.25;2.80;;;;;;;4.57;100.00;92588.25;5106323;28;20050;-76
2022/11/15 07:27:15;;;;;;;4.40;2.40;;;;;;;4.58;100.00;92588.03;5100481;28;20093;-76
2022/11/15 07:29:59;;;;;;;6.20;2.78;;;;;;;4.62;100.00;92590.16;5105092;28;20101;-76
2022/11/15 07:32:43;;;;;;;3.80;2.17;;;;;;;4.65;100.00;92582.63;5097686;28;20531;-76
2022/11/15 07:35:29;;;;;;;4.40;2.40;;;;;;;4.69;100.00;92588.13;5079160;28;20119;-76
2022/11/15 07:38:14;;;;;;;4.80;2.90;;;;;;;4.76;100.00;92589.47;5092812;28;20047;-76
2022/11/15 07:41:00;;;;;;;4.60;2.50;;;;;;;4.79;100.00;92591.56;5084994;28;20046;-76
2022/11/15 07:43:45;;;;;;;8.10;3.40;;;;;;;4.84;100.00;92592.63;5084154;28;20582;-76
2022/11/15 07:46:29;;;;;;;5.85;2.92;;;;;;;4.86;100.00;92585.38;5081585;28;20440;-76
2022/11/15 07:49:13;;;;;;;5.28;3.33;;;;;;;4.91;100.00;92582.81;5084661;28;20108;-76
2022/11/15 07:51:57;;;;;;;4.88;3.00;;;;;;;4.95;100.00;92586.50;5083718;28;20062;-76
2022/11/15 07:54:41;;;;;;;5.82;3.22;;;;;;;4.99;100.00;92580.56;5070862;28;20145;-76
2022/11/15 07:57:26;;;;;;;5.10;2.97;;;;;;;5.04;100.00;92587.59;5080209;28;20071;-76
2022/11/15 08:00:10;;;;;;;6.35;3.53;;;;;;;5.09;100.00;92589.44;5078309;28;20043;-76
2022/11/15 08:03:05;;;;;;;6.63;3.55;;;;;;;5.12;100.00;92581.94;5082123;28;20043;-76
2022/11/15 08:05:52;;;;;;;5.50;3.35;;;;;;;5.17;100.00;92579.38;5074849;28;20098;-79
2022/11/15 08:08:36;;;;;;;8.65;3.85;;;;;;;5.23;100.00;92577.63;5086229;28;20113;-77
2022/11/15 08:11:20;;;;;;;5.55;3.08;;;;;;;5.26;100.00;92584.09;5079677;28;20074;-77
2022/11/15 08:14:04;;;;;;;5.32;3.35;;;;;;;5.29;100.00;92586.19;5086912;28;20039;-77
2022/11/15 08:16:48;;;;;;;6.03;3.33;;;;;;;5.31;100.00;92586.72;5083548;28;20055;-77
2022/11/15 08:19:32;;;;;;;5.07;3.17;;;;;;;5.32;100.00;92581.28;5089030;28;20054;-77
2022/11/15 08:22:16;;;;;;;7.35;3.35;;;;;;;5.35;100.00;92580.00;5093358;28;20070;-76
2022/11/15 08:25:00;;;;;;;5.75;3.28;;;;;;;5.40;100.00;92582.63;5092594;28;20473;-77
2022/11/15 08:27:44;;;;;;;7.03;3.83;;;;;;;5.41;100.00;92582.38;5074844;28;20055;-75
2022/11/15 08:30:29;;;;;;;5.72;3.63;;;;;;;5.38;100.00;92569.91;5083479;28;20098;-76
2022/11/15 08:33:14;;;;;;;6.88;3.72;;;;;;;5.40;100.00;92573.03;5086442;28;20051;-76
2022/11/15 08:35:59;;;;;;;6.80;3.30;;;;;;;5.44;100.00;92570.72;5086836;28;20043;-76
2022/11/15 08:38:44;;;;;;;5.57;3.60;;;;;;;5.48;100.00;92563.97;5081162;28;20074;-76
2022/11/15 08:41:33;;;;;;;5.78;3.42;;;;;;;5.58;100.00;92566.63;5086318;28;20384;-76
2022/11/15 08:44:17;;;;;;;5.70;3.47;;;;;;;5.62;100.00;92559.88;5076467;28;20055;-77
2022/11/15 08:47:01;;;;;;;6.13;3.47;;;;;;;5.61;100.00;92553.13;5100939;28;20044;-77
2022/11/15 08:49:45;;;;;;;5.47;3.58;;;;;;;5.70;100.00;92560.47;5087206;28;20462;-77
2022/11/15 08:52:29;;;;;;;5.63;3.35;;;;;;;5.66;100.00;92554.19;5077325;28;20531;-77
2022/11/15 08:55:14;;;;;;;6.95;3.22;;;;;;;5.73;100.00;92554.75;5087990;28;20399;-77
2022/11/15 08:57:58;;;;;;;6.05;3.60;;;;;;;5.77;100.00;92555.81;5087919;28;20082;-76
2022/11/15 09:00:42;;;;;;;10.57;3.63;;;;;;;5.81;100.00;92551.66;5088939;28;20081;-76
2022/11/15 09:03:26;;;;;;;6.57;3.00;;;;;;;5.85;100.00;92550.09;5087470;28;20043;-76
2022/11/15 09:06:11;;;;;;;5.28;3.47;;;;;;;5.92;100.00;92552.47;5082711;28;20038;-77
2022/11/15 09:08:56;;;;;;;4.97;3.08;;;;;;;5.99;100.00;92548.63;5086281;28;20554;-76
2022/11/15 09:11:40;;;;;;;4.50;2.83;;;;;;;6.09;100.00;92553.06;5076349;28;20044;-76
2022/11/15 09:14:25;;;;;;;5.03;3.20;;;;;;;6.18;100.00;92545.56;5071995;28;20070;-76
2022/11/15 09:17:09;;;;;;;8.68;4.75;;;;;;;6.19;100.00;92549.69;5071087;28;20040;-76
2022/11/15 09:19:53;;;;;;;6.20;3.78;;;;;;;6.22;100.00;92547.38;5080114;28;20069;-76
2022/11/15 09:22:38;;;;;;;5.10;3.20;;;;;;;6.35;100.00;92551.31;5086676;28;20113;-76
2022/11/15 09:25:23;;;;;;;6.35;3.42;;;;;;;6.25;100.00;92551.28;5089210;28;20539;-76
2022/11/15 09:28:08;;;;;;;5.50;3.13;;;;;;;6.17;100.00;92549.97;5092516;28;20054;-76
2022/11/15 09:30:56;;;;;;;6.05;3.40;;;;;;;6.12;100.00;92552.53;5091130;28;20070;-76
2022/11/15 09:33:43;;;;;;;4.72;3.13;;;;;;;6.20;100.00;92548.69;5084688;28;20043;-76
2022/11/15 09:36:28;;;;;;;6.13;3.55;;;;;;;6.24;100.00;92547.91;5073934;28;20066;-76
2022/11/15 09:39:12;;;;;;;5.13;3.20;;;;;;;6.28;100.00;92558.56;5090121;28;20488;-76
2022/11/15 09:42:38;;;;;;;4.60;2.95;;;;;;;6.25;100.00;92562.44;5090362;28;20093;-76
2022/11/15 09:45:29;;;;;;;4.57;2.88;;;;;;;6.31;100.00;92562.47;5068139;28;20097;-76
2022/11/15 09:48:39;;;;;;;4.43;2.92;;;;;;;6.39;100.00;92556.75;5079538;28;20512;-76
2022/11/15 09:51:34;;;;;;;4.15;2.72;;;;;;;6.49;100.00;92558.59;5075884;28;20045;-76
2022/11/15 09:54:08;;;;;;;5.90;2.85;;;;;;;6.51;100.00;92559.09;5072363;28;20039;-76
2022/11/15 09:56:42;;;;;;;4.55;2.80;;;;;;;6.54;100.00;92561.22;5070522;28;20120;-76
2022/11/15 09:59:29;;;;;;;5.50;2.70;;;;;;;6.60;100.00;92555.75;5089216;28;20036;-76
2022/11/15 10:02:04;;;;;;;4.60;2.63;;;;;;;6.56;100.00;92559.13;5077999;28;20032;-76
2022/11/15 10:04:31;;;;;;;6.70;2.67;;;;;;;6.49;100.00;92563.81;5088365;28;20405;-76
2022/11/15 10:07:18;;;;;;;5.25;2.97;;;;;;;6.57;100.00;92564.06;5091899;28;20039;-76
2022/11/15 10:10:08;;;;;;;4.70;2.60;;;;;;;6.60;100.00;92557.56;5085952;28;20025;-76
2022/11/15 10:12:33;;;;;;;4.95;2.92;;;;;;;6.47;100.00;92551.06;5070531;28;20045;-76
2022/11/15 10:15:13;;;;;;;4.75;2.95;;;;;;;6.39;100.00;92554.94;5055596;28;20036;-76
2022/11/15 10:18:00;;;;;;;4.53;2.50;;;;;;;6.33;100.00;92550.78;5081080;28;20493;-76
2022/11/15 10:20:29;;;;;;;4.82;3.00;;;;;;;6.18;100.00;92550.75;5081920;28;20548;-76
2022/11/15 10:23:01;;;;;;;5.57;3.00;;;;;;;6.06;100.00;92551.00;5071891;28;20031;-76
2022/11/15 10:25:31;;;;;;;7.15;3.08;;;;;;;6.04;100.00;92543.44;5071676;28;20041;-76
2022/11/15 10:28:20;;;;;;;4.90;2.90;;;;;;;6.04;100.00;92543.44;5071684;28;20032;-76
2022/11/15 10:30:49;;;;;;;6.63;4.13;;;;;;;6.06;100.00;92532.78;5086703;28;20146;-76
2022/11/15 10:33:29;;;;;;;6.05;3.28;;;;;;;6.04;100.00;92527.84;5081238;28;20029;-76
2022/11/15 10:36:14;;;;;;;5.15;3.40;;;;;;;5.91;100.00;92515.31;5073372;28;20040;-76
2022/11/15 10:38:49;;;;;;;5.40;3.40;;;;;;;5.81;100.00;92516.06;5072010;28;20497;-76
2022/11/15 10:41:37;;;;;;;6.93;3.80;;;;;;;5.93;100.00;92515.06;5071746;28;20430;-76
2022/11/15 10:44:03;;;;;;;5.32;3.33;;;;;;;6.01;100.00;92510.19;5071829;28;20115;-76
2022/11/15 10:46:28;;;;;;;5.85;3.50;;;;;;;5.95;100.00;92500.03;5076541;28;20500;-77
2022/11/15 10:49:13;;;;;;;5.15;3.20;;;;;;;5.92;100.00;92501.28;5091719;28;20028;-76
2022/11/15 10:51:49;;;;;;;7.05;4.15;;;;;;;5.85;100.00;92485.16;5085445;28;20039;-77
2022/11/15 10:54:28;;;;;;;5.72;3.40;;;;;;;5.78;100.00;92471.63;5089974;28;20078;-77
2022/11/15 10:56:58;;;;;;;6.88;4.15;;;;;;;5.92;100.00;92488.31;5089569;28;20024;-76
2022/11/15 10:59:36;;;;;;;6.47;4.13;;;;;;;6.02;100.00;92484.97;5090123;28;20163;-77
2022/11/15 11:02:02;;;;;;;6.43;4.30;;;;;;;6.12;100.00;92484.97;5078560;28;20042;-76
2022/11/15 11:04:27;;;;;;;6.45;3.80;;;;;;;6.25;100.00;92481.88;5076987;28;20460;-76
2022/11/15 11:06:59;;;;;;;5.68;3.50;;;;;;;6.29;100.00;92479.53;5083452;28;20038;-77
2022/11/15 11:09:39;;;;;;;4.88;3.13;;;;;;;6.38;100.00;92464.97;5075491;28;20521;-77
2022/11/15 11:12:09;;;;;;;5.93;3.60;;;;;;;6.31;100.00;92471.50;5088108;28;20394;-77
2022/11/15 11:14:37;;;;;;;5.20;3.50;;;;;;;6.25;100.00;92470.69;5083937;28;20505;-77
2022/11/15 11:17:17;;;;;;;4.93;2.90;;;;;;;6.20;100.00;92468.88;5081199;28;20124;-78
2022/11/15 11:19:55;;;;;;;5.60;3.75;;;;;;;6.03;100.00;92460.53;5092392;28;20058;-78
2022/11/15 11:22:50;;;;;;;5.05;3.15;;;;;;;6.02;100.00;92462.34;5090906;28;20442;-77
2022/11/15 11:25:31;;;;;;;5.38;3.50;;;;;;;5.79;100.00;92450.59;5085460;28;20036;-77
2022/11/15 11:28:01;;;;;;;7.82;4.00;;;;;;;5.79;100.00;92444.63;5088568;28;20406;-77
2022/11/15 11:30:49;;;;;;;7.10;4.28;;;;;;;5.91;100.00;92439.19;5091613;28;20036;-76
2022/11/15 11:33:27;;;;;;;5.88;3.67;;;;;;;5.99;100.00;92434.28;5092687;28;20107;-76
2022/11/15 11:36:04;;;;;;;6.07;4.10;;;;;;;6.13;100.00;92426.00;5073566;28;20101;-76
2022/11/15 11:38:44;;;;;;;6.20;4.07;;;;;;;6.27;100.00;92424.41;5089726;28;20114;-76
2022/11/15 11:41:28;;;;;;;5.53;3.67;;;;;;;6.34;100.00;92418.97;5085111;28;20143;-76
2022/11/15 11:44:03;;;;;;;8.93;3.50;;;;;;;6.51;100.00;92413.47;5082560;28;20032;-76
2022/11/15 11:46:48;;;;;;;5.32;3.50;;;;;;;6.71;100.00;92407.47;5078697;28;20103;-76
2022/11/15 11:49:32;;;;;;;5.22;3.35;;;;;;;6.64;100.00;92407.72;5090748;28;20031;-76
2022/11/15 11:52:15;;;;;;;9.73;3.90;;;;;;;6.66;100.00;92401.25;5090407;28;20085;-76
2022/11/15 11:54:47;;;;;;;6.68;3.95;;;;;;;6.52;100.00;92407.25;5086789;28;20036;-76
2022/11/15 11:57:22;;;;;;;6.47;4.10;;;;;;;6.43;100.00;92412.19;5091524;28;20597;-76
2022/11/15 12:00:14;;;;;;;10.45;6.32;;;;;;;6.24;100.00;92406.75;5089512;28;20115;-76
2022/11/15 12:02:44;;;;;;;7.85;4.45;;;;;;;6.19;100.00;92401.53;5067912;28;20044;-76
2022/11/15 12:05:27;;;;;;;9.60;5.20;;;;;;;6.23;100.00;92403.34;5072867;28;20448;-76
2022/11/15 12:07:58;;;;;;;244.38;8.60;;;;;;;6.18;100.00;92400.00;5083752;28;20731;-76
2022/11/15 12:10:29;;;;;;;55.20;6.20;;;;;;;6.32;100.00;92400.25;5082606;28;20488;-75
2022/11/15 12:13:01;;;;;;;49.22;5.68;;;;;;;6.12;100.00;92406.22;5090694;28;20035;-76
2022/11/15 12:15:53;;;;;;;250.70;9.77;;;;;;;5.92;100.00;92399.16;5079617;28;20107;-77
2022/11/15 12:18:19;;;;;;;7.88;5.03;;;;;;;5.87;100.00;92394.75;5084214;28;20119;-76
2022/11/15 12:20:59;;;;;;;8.25;5.00;;;;;;;5.84;100.00;92393.44;5079557;28;20497;-76
2022/11/15 12:23:28;;;;;;;8.13;5.20;;;;;;;5.76;100.00;92395.78;5086299;28;20089;-76
2022/11/15 12:26:00;;;;;;;10.40;6.65;;;;;;;5.82;100.00;92398.13;5085273;28;20040;-76
2022/11/15 12:28:50;;;;;;;8.90;5.40;;;;;;;5.80;100.00;92394.22;5084485;28;20591;-76
2022/11/15 12:31:34;;;;;;;7.28;4.45;;;;;;;5.81;100.00;92391.38;5079832;28;20040;-77
2022/11/15 12:34:03;;;;;;;7.47;4.55;;;;;;;5.85;100.00;92386.44;5078279;28;20025;-76
2022/11/15 12:36:39;;;;;;;7.95;3.70;;;;;;;5.95;100.00;92375.31;5072869;28;20051;-76
2022/11/15 12:39:08;;;;;;;5.10;3.30;;;;;;;6.01;100.00;92374.25;5075148;28;20028;-76
2022/11/15 12:41:41;;;;;;;7.57;4.50;;;;;;;6.03;100.00;92370.38;5074686;28;20036;-76
2022/11/15 12:44:13;;;;;;;7.47;4.43;;;;;;;6.02;100.00;92373.22;5071780;28;20040;-76
2022/11/15 12:46:38;;;;;;;6.45;3.75;;;;;;;6.04;100.00;92369.31;5090924;28;20028;-76
2022/11/15 12:49:24;;;;;;;6.82;3.67;;;;;;;5.98;100.00;92365.16;5079775;28;20403;-76
2022/11/15 12:51:50;;;;;;;5.35;3.35;;;;;;;5.93;100.00;92361.78;5078765;28;20046;-76
2022/11/15 12:54:22;;;;;;;5.75;4.00;;;;;;;5.84;100.00;92357.09;5081119;28;20039;-76
2022/11/15 12:57:02;;;;;;;7.07;3.90;;;;;;;5.81;100.00;92351.63;5084905;28;20025;-76
2022/11/15 12:59:55;;;;;;;12.18;6.95;;;;;;;5.80;100.00;92342.28;5080925;28;20060;-76
2022/11/15 13:02:49;;;;;;;12.65;6.43;;;;;;;5.87;100.00;92331.63;5083199;28;20043;-76
2022/11/15 13:05:15;;;;;;;10.30;5.68;;;;;;;5.82;100.00;92329.81;5081655;28;20536;-76
2022/11/15 13:07:40;;;;;;;11.40;7.20;;;;;;;5.77;100.00;92332.41;5087756;28;20032;-75